INFORMACIÓN METAR y TAF
METAR FOR LEMG
ADDS - METARS form results

(0937 UTC 03 December 2021)
Data provider http://aviationweather.gov/metar/data/
 
METAR text: LEMG 030930Z 31012G23KT CAVOK 14/M00 Q1024 NOSIG
Conditions at: LEMG (MALAGA (CIV/MIL), ES) observed 0930 UTC 03 December 2021
Temperature: 14.0°C (57°F)
Dewpoint: 0.0°C (32°F) [RH = 38%]
Pressure (altimeter): 30.24 inches Hg (1024.0 mb)
Winds: from the NW (310 degrees) at 14 MPH (12 knots; 6.2 m/s)
gusting to 26 MPH (23 knots; 11.8 m/s)
Visibility: 6 or more miles (10+ km)
Ceiling: ceiling and visibility are OK
Clouds: unknown
Weather: no significant weather observed at this time

METAR text: LEMG 030900Z 29014KT CAVOK 13/M01 Q1023 NOSIG
Conditions at: LEMG (MALAGA (CIV/MIL), ES) observed 0900 UTC 03 December 2021
Temperature: 13.0°C (55°F)
Dewpoint: -1.0°C (30°F) [RH = 38%]
Pressure (altimeter): 30.21 inches Hg (1023.0 mb)
Winds: from the WNW (290 degrees) at 16 MPH (14 knots; 7.2 m/s)
Visibility: 6 or more miles (10+ km)
Ceiling: ceiling and visibility are OK
Clouds: unknown
Weather: no significant weather observed at this time

Forecast for: LEMG (MALAGA (CIV/MIL), ES)
Text: TAF LEMG 030500Z 0306/0406 30012KT CAVOK TX18/0313Z TN09/0306Z
Forecast period: 0600 UTC 03 December 2021 to 0600 UTC 04 December 2021
Forecast type: FROM: standard forecast or significant change
Winds: from the WNW (300 degrees) at 14 MPH (12 knots; 6.2 m/s)
Visibility: 6 or more miles (10+ km)
Ceiling: unknown
Clouds: missing
Weather: no significant weather forecast for this period
Text: PROB30
Forecast period: 0600 UTC 03 December 2021 to 0000 UTC 04 December 2021
Forecast type: TEMPORARY: The following changes expected for less than half the time period
Winds: from the WNW (300 degrees) at 17 MPH (15 knots; 7.7 m/s)
gusting to 29 MPH (25 knots; 12.9 m/s)
Visibility: missing
Ceiling: unknown
Clouds: missing
Weather: no significant weather forecast for this period

 MAPA DE AEROPUERTO

 INFORMACIÓN DE PISTA
Pista 12 Longitud 9022 ft Ancho 148 ft
Elevación 52 ft Umbral desplazado 0 ft Rumbo de pista 119
Pista 30 Longitud 9022 ft Ancho 148 ft
Elevación 31 ft Umbral desplazado 0 ft Rumbo de pista 299
Pista 13 Longitud 10500 ft Ancho 148 ft
Elevación 52 ft Umbral desplazado 0 ft Rumbo de pista 133
Pista 31 Longitud 10500 ft Ancho 148 ft
Elevación 31 ft Umbral desplazado 0 ft Rumbo de pista 313

 FRECUANCIAS DEL AEROPUERTO
Tipo A/D Nombre APP Frecuencia 123.85 MHZ
Tipo ATIS Nombre ATIS Frecuencia 120.375 MHZ
Tipo CLD Nombre CLR DEL Frecuencia 121.875 MHZ
Tipo GND Nombre GND-W Frecuencia 121.7 MHZ
Tipo GND Nombre GND-E Frecuencia 121.95 MHZ
Tipo TWR Nombre TWR-W (RWY Frecuencia 118.15 MHZ
Tipo TWR Nombre TWR-E (RWY Frecuencia 118.775 MHZ

 RADIO AYUDAS DEL AEROPUERTO
Tipo VOR-DME Nombre Martin Frecuencia 112600 KHZ
Tipo VOR-DME Nombre Malaga Frecuencia 112000 KHZ
Tipo VOR-DME Nombre Malaga Frecuencia 113550 KHZ
Tipo NDB Nombre Malaga Frecuencia 330 KHZ



Powered by Virtual Airlines Manager [v2.6.2]